tititudorancea.com
Station Historical Data
Daily Summary for January 24, 2019 Units:  Metric    English   Both
« Previous Day
Next Day »
Daily Weekly Monthly Yearly Custom
  High: Low: Average:
Temperature: -17.8 °C 14.4 °C 28.1 °C
Dew Point: -17.8 °C 4.5 °C 10.6 °C
Humidity: Humidity % 14 % 43 %
Wind Speed: 0 km/h 0 km/h 12.2 km/h
Wind Gust: 0 km/h - -
Wind:- - SE
Pressure: 0 hPa 1003.6 hPa -
Precipitation: 0 mm    
Historical Graphs
 
 
Ararat weather Find more about Weather in Ararat, AU


 



 


Tabular Data for January 24, 2019
Time Temperature Dew Point Pressure Wind Wind Speed Wind Gust Humidity Rainfall Rate (Hourly)
-17.8 °C -17.8 °C 0 hPa Calm     Humidity % 0 mm
00:04 18.2 °C 13.1 °C 1012.8 hPa South 13 km/h 10.8 km/h 72 % 0 mm
00:09 18.1 °C 12.9 °C 1012.8 hPa South 13 km/h 10.5 km/h 72 % 0 mm
00:14 17.9 °C 13 °C 1012.8 hPa SSW 18.5 km/h 9.8 km/h 73 % 0 mm
00:19 17.7 °C 12.8 °C 1012.8 hPa SSW 18.5 km/h 12.4 km/h 73 % 0 mm
00:24 17.5 °C 12.6 °C 1012.8 hPa SSW 20.4 km/h 9.7 km/h 73 % 0 mm
00:29 17.3 °C 12.7 °C 1012.8 hPa South 16.7 km/h 7.6 km/h 74 % 0 mm
00:34 17.1 °C 12.7 °C 1012.8 hPa North 14.8 km/h 13.4 km/h 75 % 0 mm
00:39 16.9 °C 12.7 °C 1012.8 hPa South 18.5 km/h 10.3 km/h 76 % 0 mm
00:44 16.8 °C 12.7 °C 1012.4 hPa South 13 km/h 8.4 km/h 77 % 0 mm
00:49 16.7 °C 12.6 °C 1012.4 hPa South 16.7 km/h 8 km/h 77 % 0 mm
00:54 16.6 °C 12.7 °C 1012.4 hPa South 9.3 km/h 6.3 km/h 78 % 0 mm
00:59 16.4 °C 12.6 °C 1012.4 hPa South 16.7 km/h 7.9 km/h 78 % 0 mm
01:04 16.3 °C 12.6 °C 1012.4 hPa South 18.5 km/h 12.1 km/h 79 % 0 mm
01:09 16.2 °C 12.6 °C 1012.4 hPa South 17.7 km/h 11.7 km/h 79 % 0 mm
01:14 16.1 °C 12.7 °C 1012.4 hPa South 13 km/h 8.4 km/h 80 % 0 mm
01:19 16 °C 12.6 °C 1012.4 hPa North 14.8 km/h 11.1 km/h 80 % 0 mm
01:24 15.9 °C 12.6 °C 1012.4 hPa South 18.5 km/h 11.3 km/h 81 % 0 mm
01:29 15.8 °C 12.6 °C 1012.1 hPa South 13 km/h 10 km/h 81 % 0 mm
01:34 15.8 °C 12.5 °C 1012.1 hPa South 13 km/h 8.9 km/h 81 % 0 mm
01:39 15.7 °C 12.4 °C 1012.4 hPa South 13 km/h 6.3 km/h 81 % 0 mm
01:44 15.6 °C 12.6 °C 1012.1 hPa South 13 km/h 10 km/h 82 % 0 mm
01:49 15.5 °C 12.4 °C 1012.1 hPa South 13 km/h 7.7 km/h 82 % 0 mm
01:54 15.4 °C 12.4 °C 1012.1 hPa South 18.5 km/h 11.4 km/h 82 % 0 mm
01:59 15.3 °C 12.4 °C 1012.1 hPa South 16.7 km/h 10.9 km/h 83 % 0 mm
02:04 15.3 °C 12.4 °C 1012.1 hPa SSW 20.4 km/h 12.2 km/h 83 % 0 mm
02:09 15.2 °C 12.3 °C 1012.1 hPa SSW 11.3 km/h 7.7 km/h 83 % 0 mm
02:14 15.2 °C 12.3 °C 1012.1 hPa SSW 14.5 km/h 8.4 km/h 83 % 0 mm
02:19 15.2 °C 12.3 °C 1011.7 hPa SSW 11.1 km/h 5.6 km/h 83 % 0 mm
02:24 15.1 °C 12.2 °C 1011.7 hPa North 9.7 km/h 8.2 km/h 83 % 0 mm
02:29 15 °C 12.3 °C 1011.7 hPa SSW 13 km/h 12.6 km/h 84 % 0 mm
02:34 14.9 °C 12.3 °C 1011.7 hPa SSW 14.8 km/h 9.8 km/h 84 % 0 mm
02:39 14.9 °C 12.2 °C 1011.7 hPa SSW 14.8 km/h 6.8 km/h 84 % 0 mm
02:44 14.9 °C 12.2 °C 1011.7 hPa SSW 16.7 km/h 10.1 km/h 84 % 0 mm
02:49 14.9 °C 12.2 °C 1011.7 hPa SSW 13 km/h 7.7 km/h 84 % 0 mm
02:54 15 °C 12.3 °C 1011.4 hPa SSW 18.5 km/h 8.9 km/h 84 % 0 mm
02:59 15.1 °C 12.2 °C 1011.4 hPa SSW 12.9 km/h 9 km/h 83 % 0 mm
03:04 15.2 °C 12.2 °C 1011.4 hPa SSW 7.4 km/h 5.5 km/h 82 % 0 mm
03:09 15.2 °C 12.2 °C 1011.4 hPa SSW 9.3 km/h 6.9 km/h 82 % 0 mm
03:14 15.3 °C 12.2 °C 1011.4 hPa North 9.3 km/h 7.7 km/h 82 % 0 mm
03:19 15.4 °C 12.2 °C 1011.4 hPa SSW 13 km/h 9.8 km/h 81 % 0 mm
03:24 15.3 °C 12.1 °C 1011.4 hPa SSW 11.3 km/h 9.3 km/h 81 % 0 mm
03:29 15.3 °C 12.1 °C 1011.4 hPa SSW 18.5 km/h 11.4 km/h 81 % 0 mm
03:34 15.3 °C 12.1 °C 1011.4 hPa SSW 18.5 km/h 13.7 km/h 81 % 0 mm
03:39 15.3 °C 12.1 °C 1011.4 hPa SSW 13 km/h 6.1 km/h 81 % 0 mm
03:44 15.2 °C 11.9 °C 1011.1 hPa SSW 14.8 km/h 9.8 km/h 81 % 0 mm
03:49 15.1 °C 11.8 °C 1011.1 hPa SSW 14.8 km/h 8.4 km/h 81 % 0 mm
03:54 14.9 °C 11.7 °C 1011.1 hPa SSW 12.9 km/h 8.4 km/h 81 % 0 mm
03:59 14.8 °C 11.8 °C 1011.1 hPa SSW 16.7 km/h 9.7 km/h 82 % 0 mm
04:04 14.8 °C 11.7 °C 1011.1 hPa SSW 14.5 km/h 9.5 km/h 82 % 0 mm
04:09 14.7 °C 11.6 °C 1011.1 hPa North 18.5 km/h 9.3 km/h 82 % 0 mm
04:14 14.7 °C 11.8 °C 1011.1 hPa SSW 11.1 km/h 8.4 km/h 83 % 0 mm
04:19 14.7 °C 11.9 °C 1010.7 hPa SSW 11.1 km/h 8.9 km/h 83 % 0 mm
04:24 14.8 °C 11.9 °C 1010.7 hPa SSW 14.8 km/h 8.2 km/h 83 % 0 mm
04:29 14.9 °C 11.9 °C 1010.7 hPa SSW 18.5 km/h 10 km/h 82 % 0 mm
04:34 15.1 °C 12 °C 1010.7 hPa SSW 14.8 km/h 10.9 km/h 82 % 0 mm
04:39 15.2 °C 12.2 °C 1010.7 hPa SSW 11.3 km/h 7.2 km/h 82 % 0 mm
04:44 15.3 °C 12.1 °C 1010.7 hPa SSW 13 km/h 7.6 km/h 81 % 0 mm
04:49 15.4 °C 12.2 °C 1010.7 hPa North 11.3 km/h 8 km/h 81 % 0 mm
04:54 15.6 °C 12.3 °C 1010.7 hPa SSW 18.5 km/h 8.9 km/h 81 % 0 mm
04:59 15.7 °C 12.2 °C 1010.7 hPa SSW 13 km/h 6.8 km/h 80 % 0 mm
05:04 15.7 °C 12.3 °C 1010.7 hPa SSW 7.4 km/h 4.7 km/h 80 % 0 mm
05:09 15.8 °C 12.3 °C 1010.4 hPa SSW 9.3 km/h 5.6 km/h 80 % 0 mm
05:14 15.8 °C 12.2 °C 1010.4 hPa SSW 9.3 km/h 5.6 km/h 79 % 0 mm
05:19 15.9 °C 12.2 °C 1010.7 hPa SSW 5.6 km/h 3.4 km/h 79 % 0 mm
05:24 15.9 °C 12.3 °C 1010.4 hPa SSW 8 km/h 7.4 km/h 79 % 0 mm
05:29 16.1 °C 12.2 °C 1010.4 hPa SSW 13 km/h 6.3 km/h 78 % 0 mm
05:34 16.1 °C 12.3 °C 1010.4 hPa North 5.6 km/h 2.1 km/h 78 % 0 mm
05:39 16.2 °C 12.1 °C 1010.4 hPa SSW 3.7 km/h 2.4 km/h 77 % 0 mm
05:44 16.2 °C 12.1 °C 1010.4 hPa SSW 5.6 km/h 2.9 km/h 77 % 0 mm
05:49 16.1 °C 12.1 °C 1010.4 hPa SSW 5.6 km/h 3.7 km/h 77 % 0 mm
05:54 16.1 °C 12.1 °C 1010.4 hPa SSW 5.6 km/h 1.9 km/h 77 % 0 mm
05:59 16.1 °C 12.1 °C 1010.4 hPa Calm     77 % 0 mm
06:04 16.1 °C 12 °C 1010.4 hPa SSW 3.7 km/h 0.2 km/h 77 % 0 mm
06:09 15.9 °C 11.8 °C 1010.4 hPa SSW 5.6 km/h 3.1 km/h 77 % 0 mm
06:14 15.8 °C 11.8 °C 1010.4 hPa SSW 3.7 km/h 0.2 km/h 77 % 0 mm
06:19 15.7 °C 11.7 °C 1010.4 hPa SSW 1.9 km/h 0.8 km/h 77 % 0 mm
06:24 15.6 °C 11.7 °C 1010.4 hPa Calm     78 % 0 mm
06:29 15.4 °C 11.6 °C 1010.4 hPa SSW 4.8 km/h 4 km/h 78 % 0 mm
06:34 15.2 °C 11.6 °C 1010 hPa SSW 5.6 km/h 1 km/h 79 % 0 mm
06:39 14.9 °C 11.3 °C 1010 hPa Calm     79 % 0 mm
06:44 14.8 °C 11.4 °C 1010 hPa Calm     80 % 0 mm
06:49 14.7 °C 11.3 °C 1010 hPa Calm     80 % 0 mm
06:54 14.5 °C 11.3 °C 1010 hPa Calm     81 % 0 mm
06:59 14.4 °C 11.3 °C 1010 hPa Calm     82 % 0 mm
07:04 14.4 °C 11.3 °C 1010 hPa Calm     82 % 0 mm
07:09 14.5 °C 11.4 °C 1010.4 hPa Calm     82 % 0 mm
07:14 14.6 °C 11.6 °C 1010.4 hPa Calm     82 % 0 mm
07:19 14.7 °C 11.6 °C 1010.4 hPa South 3.2 km/h 1.4 km/h 82 % 0 mm
07:24 14.9 °C 11.7 °C 1010.4 hPa SSW 5.6 km/h 5 km/h 81 % 0 mm
07:29 15.1 °C 11.8 °C 1010.4 hPa SSW 5.6 km/h 3.7 km/h 81 % 0 mm
07:34 15.1 °C 11.6 °C 1010.4 hPa SSW 5.6 km/h 2.9 km/h 80 % 0 mm
07:39 15.1 °C 11.6 °C 1010.4 hPa Calm     80 % 0 mm
07:44 15.2 °C 11.7 °C 1010.4 hPa SSW 1.6 km/h 0.5 km/h 80 % 0 mm
07:49 15.3 °C 11.9 °C 1010.4 hPa SSW 5.6 km/h   80 % 0 mm
07:54 15.7 °C 12.3 °C 1010.4 hPa South 3.2 km/h 0.6 km/h 80 % 0 mm
07:59 16.3 °C 12.6 °C 1010.4 hPa SSW 3.2 km/h 1.6 km/h 79 % 0 mm
08:04 16.8 °C 12.7 °C 1010.4 hPa SSW 5.6 km/h 4.2 km/h 77 % 0 mm
08:09 17.1 °C 12.7 °C 1010.4 hPa Calm     75 % 0 mm
08:14 17.3 °C 12.7 °C 1010.4 hPa SSW 1.6 km/h 0.3 km/h 74 % 0 mm
08:19 17.7 °C 12.8 °C 1010.4 hPa Calm     73 % 0 mm
08:24 18.1 °C 13.2 °C 1010.4 hPa SSW 3.7 km/h 0.6 km/h 73 % 0 mm
08:29 18.8 °C 12.9 °C 1010.7 hPa SSW 5.6 km/h 4.8 km/h 69 % 0 mm
08:34 19.1 °C 13 °C 1010.7 hPa South 5.6 km/h 2.3 km/h 68 % 0 mm
08:39 19.3 °C 12.8 °C 1010.7 hPa SSW 5.6 km/h 2.7 km/h 66 % 0 mm
08:44 19.7 °C 12.9 °C 1010.4 hPa North 3.7 km/h 3.7 km/h 65 % 0 mm
08:49 20.2 °C 12.7 °C 1010.4 hPa SSW 5.6 km/h 2.1 km/h 62 % 0 mm
08:54 20.7 °C 12.7 °C 1010.4 hPa SSW 3.2 km/h 2.6 km/h 60 % 0 mm
08:59 21.3 °C 12.7 °C 1010.4 hPa SSW 5.6 km/h 3.9 km/h 58 % 0 mm
09:04 21.8 °C 12.7 °C 1010.4 hPa South 7.4 km/h 5.8 km/h 56 % 0 mm
09:09 22.6 °C 11.7 °C 1010.4 hPa SSW 13 km/h 5.6 km/h 50 % 0 mm
09:14 23.4 °C 11.1 °C 1010.7 hPa SW 8 km/h 9.3 km/h 46 % 0 mm
09:19 24.3 °C 10.9 °C 1010.4 hPa SW 9.3 km/h 7.7 km/h 43 % 0 mm
09:24 25.3 °C 9.1 °C 1010.4 hPa NW 14.8 km/h 9.3 km/h 36 % 0 mm
09:29 26.3 °C 8.3 °C 1010.4 hPa NNE 14.8 km/h 4.8 km/h 32 % 0 mm
09:34 27.2 °C 7.1 °C 1010.4 hPa NNE 16.7 km/h 9.3 km/h 28 % 0 mm
09:39 28.1 °C 6.7 °C 1010 hPa North 18.5 km/h 15 km/h 26 % 0 mm
09:44 28.7 °C 6.2 °C 1010 hPa NNE 16.7 km/h 8.4 km/h 24 % 0 mm
09:49 29.2 °C 5.9 °C 1010 hPa NNE 14.8 km/h 11.4 km/h 23 % 0 mm
09:54 29.6 °C 5.6 °C 1009.7 hPa NNE 18.5 km/h 11.1 km/h 22 % 0 mm
09:59 29.9 °C 5.9 °C 1009.7 hPa NNE 14.8 km/h 8 km/h 22 % 0 mm
10:04 30.4 °C 4.9 °C 1009.7 hPa North 18.5 km/h 11.1 km/h 20 % 0 mm
10:09 30.9 °C 4.6 °C 1009.7 hPa NE 16.7 km/h 10.1 km/h 19 % 0 mm
10:14 31.4 °C 5 °C 1009.7 hPa NE 11.3 km/h 7.4 km/h 19 % 0 mm
10:19 31.7 °C 4.5 °C 1009.7 hPa NE 13 km/h 9.8 km/h 18 % 0 mm
10:24 32.1 °C 4.8 °C 1009.7 hPa NNE 14.8 km/h 11.9 km/h 18 % 0 mm
10:29 32.4 °C 5 °C 1009.7 hPa NNE 20.4 km/h 12.7 km/h 18 % 0 mm
10:34 32.4 °C 5.1 °C 1009.7 hPa North 22.2 km/h 17.5 km/h 18 % 0 mm
10:39 32.7 °C 6.8 °C 1009.4 hPa NE 18.5 km/h 11.9 km/h 20 % 0 mm
10:44 32.9 °C 6.2 °C 1009.4 hPa NNE 19.3 km/h 18.2 km/h 19 % 0 mm
10:49 32.8 °C 6.9 °C 1009.4 hPa NNE 9.7 km/h 6.8 km/h 20 % 0 mm
10:54 33.2 °C 6.4 °C 1009.4 hPa NNE 16.7 km/h 12.9 km/h 19 % 0 mm
10:59 33.3 °C 7.3 °C 1009.4 hPa NNE 14.8 km/h 12.4 km/h 20 % 0 mm
11:04 33.4 °C 7.4 °C 1009.4 hPa NNE 22.2 km/h 10 km/h 20 % 0 mm
11:09 33.6 °C 7.5 °C 1009.4 hPa ENE 14.8 km/h 10.3 km/h 20 % 0 mm
11:14 33.9 °C 7.8 °C 1009.4 hPa NE 8 km/h 8 km/h 20 % 0 mm
11:19 34.2 °C 8 °C 1009.4 hPa NE 9.7 km/h 6.1 km/h 20 % 0 mm
11:24 34.4 °C 8.9 °C 1009.4 hPa NE 14.8 km/h 7.2 km/h 21 % 0 mm
11:29 34.6 °C 8.3 °C 1009.4 hPa NNE 14.8 km/h 8.2 km/h 20 % 0 mm
11:34 34.8 °C 8.5 °C 1009 hPa NNE 14.8 km/h 8.4 km/h 20 % 0 mm
11:39 34.9 °C 9.3 °C 1009 hPa NNE 13 km/h 7.4 km/h 21 % 0 mm
11:44 34.9 °C 8.7 °C 1009 hPa NNE 20.4 km/h 14.5 km/h 20 % 0 mm
11:49 35.1 °C 9.4 °C 1009 hPa NNE 11.1 km/h 7.6 km/h 21 % 0 mm
11:54 35.4 °C 9.1 °C 1008.7 hPa ENE 20.9 km/h 13.5 km/h 20 % 0 mm
11:59 35.6 °C 8.4 °C 1008.7 hPa NNE 24.1 km/h 10.6 km/h 19 % 0 mm
12:04 35.9 °C 8.7 °C 1008.7 hPa NNE 17.7 km/h 11.7 km/h 19 % 0 mm
12:09 35.9 °C 8.7 °C 1008.7 hPa North 18.5 km/h 16.6 km/h 19 % 0 mm
12:14 35.9 °C 8.7 °C 1008.7 hPa North 20.4 km/h 11.3 km/h 19 % 0 mm
12:19 36.1 °C 8.8 °C 1008.7 hPa NE 12.9 km/h 9.2 km/h 19 % 0 mm
12:24 36.4 °C 9.1 °C 1008.4 hPa North 13 km/h 8.2 km/h 19 % 0 mm
12:29 36.4 °C 9.1 °C 1008.4 hPa ENE 16.7 km/h 6.1 km/h 19 % 0 mm
12:34 36.6 °C 8.4 °C 1008.4 hPa NNE 18.5 km/h 8.4 km/h 18 % 0 mm
12:39 36.8 °C 8.6 °C 1008 hPa NE 11.1 km/h 8.7 km/h 18 % 0 mm
12:44 36.8 °C 9.4 °C 1008 hPa NNE 22.2 km/h 15.1 km/h 19 % 0 mm
12:48 36.8 °C 9.4 °C 1008 hPa NE 13 km/h 7.9 km/h 19 % 0 mm
12:59 37.1 °C 8.8 °C 1008 hPa NNE 13 km/h 9.3 km/h 18 % 0 mm
13:04 37.2 °C 9.7 °C 1007.7 hPa NNE 18.5 km/h 13 km/h 19 % 0 mm
13:09 37.3 °C 9.8 °C 1007.7 hPa NNE 11.1 km/h 6.9 km/h 19 % 0 mm
13:14 37.4 °C 9.9 °C 1007.7 hPa North 20.4 km/h 11.1 km/h 19 % 0 mm
13:19 37.5 °C 9.9 °C 1007.3 hPa NNE 11.1 km/h 8.4 km/h 19 % 0 mm
13:24 38.1 °C 10.4 °C 1007.3 hPa NNE 13 km/h 12.1 km/h 19 % 0 mm
13:29 38.6 °C 9.2 °C 1007.3 hPa NNE 29.6 km/h 19.3 km/h 17 % 0 mm
13:34 38.2 °C 9.7 °C 1007.3 hPa North 20.4 km/h 13.2 km/h 18 % 0 mm
13:39 38.2 °C 9.7 °C 1007.3 hPa NNE 22.2 km/h 11.9 km/h 18 % 0 mm
13:44 38.3 °C 9.8 °C 1007.3 hPa NNE 18.5 km/h 10.1 km/h 18 % 0 mm
13:49 38.3 °C 9.8 °C 1007.3 hPa NNE 27.8 km/h 11.1 km/h 18 % 0 mm
13:54 38.2 °C 9.7 °C 1007 hPa NNE 20.4 km/h 13.2 km/h 18 % 0 mm
13:59 38.5 °C 9.1 °C 1007 hPa North 20.4 km/h 9.5 km/h 17 % 0 mm
14:04 38.4 °C 9.9 °C 1007 hPa NE 22.2 km/h 14.5 km/h 18 % 0 mm
14:09 38.8 °C 10.2 °C 1007 hPa North 18.5 km/h 13 km/h 18 % 0 mm
14:14 38.7 °C 10.2 °C 1006.7 hPa North 22.2 km/h 9.7 km/h 18 % 0 mm
14:19 39.1 °C 9.6 °C 1006.7 hPa North 18.5 km/h 8 km/h 17 % 0 mm
14:24 39.2 °C 9.7 °C 1006.7 hPa North 24.1 km/h 17.4 km/h 17 % 0 mm
14:29 39.1 °C 10.4 °C 1006.7 hPa NNE 16.7 km/h 14.2 km/h 18 % 0 mm
14:34 39.2 °C 9.7 °C 1006.7 hPa NNW 20.9 km/h 14.6 km/h 17 % 0 mm
14:39 39.1 °C 9.6 °C 1006.7 hPa North 18.5 km/h 13 km/h 17 % 0 mm
14:44 39.3 °C 9.8 °C 1006.7 hPa North 14.8 km/h 7.6 km/h 17 % 0 mm
14:49 39.4 °C 9.9 °C 1006.7 hPa NNE 24.1 km/h 13.2 km/h 17 % 0 mm
14:54 39.6 °C 9.9 °C 1006.3 hPa North 11.1 km/h 6.3 km/h 17 % 0 mm
14:59 40.1 °C 10.4 °C 1006.3 hPa North 24.1 km/h 9.8 km/h 17 % 0 mm
15:04 39.7 °C 10.1 °C 1006.3 hPa NNE 14.8 km/h 10.1 km/h 17 % 0 mm
15:09 39.7 °C 9.2 °C 1006.3 hPa North 18.5 km/h 14.6 km/h 16 % 0 mm
15:14 39.7 °C 9.2 °C 1006 hPa NNE 18.5 km/h 14.8 km/h 16 % 0 mm
15:19 39.8 °C 10.2 °C 1006 hPa NNW 18.5 km/h 15.9 km/h 17 % 0 mm
15:24 39.8 °C 10.2 °C 1006 hPa North 24.1 km/h 12.9 km/h 17 % 0 mm
15:29 39.8 °C 9.3 °C 1005.6 hPa NW 18.5 km/h 7.6 km/h 16 % 0 mm
15:34 39.7 °C 9.2 °C 1005.6 hPa NNE 29 km/h 21.2 km/h 16 % 0 mm
15:39 39.8 °C 9.3 °C 1005.6 hPa NW 18.5 km/h 13.2 km/h 16 % 0 mm
15:44 39.9 °C 8.4 °C 1005.6 hPa NNE 20.4 km/h 3.9 km/h 15 % 0 mm
15:49 40.1 °C 9.5 °C 1005.3 hPa NNW 18.5 km/h 9.3 km/h 16 % 0 mm
15:54 40 °C 9.4 °C 1005.3 hPa NW 17.7 km/h 11.4 km/h 16 % 0 mm
15:59 40.1 °C 8.6 °C 1005.3 hPa North 24.1 km/h 7.9 km/h 15 % 0 mm
16:04 40.3 °C 8.7 °C 1005.3 hPa NW 20.9 km/h 12.9 km/h 15 % 0 mm
16:09 40.1 °C 9.5 °C 1005.3 hPa NNW 20.4 km/h 12.7 km/h 16 % 0 mm
16:14 40.1 °C 9.4 °C 1005.3 hPa North 16.1 km/h 11.4 km/h 16 % 0 mm
16:19 40.3 °C 9.6 °C 1005 hPa NNE 14.8 km/h 7.9 km/h 16 % 0 mm
16:24 40.3 °C 8.7 °C 1005.3 hPa North 24.1 km/h 15.1 km/h 15 % 0 mm
16:29 40 °C 9.4 °C 1005 hPa North 14.8 km/h 16.9 km/h 16 % 0 mm
16:34 40.1 °C 8.5 °C 1005 hPa NNW 18.5 km/h 13.7 km/h 15 % 0 mm
16:39 40.1 °C 8.5 °C 1005 hPa North 18.5 km/h 12.4 km/h 15 % 0 mm
16:44 40.2 °C 8.6 °C 1005 hPa North 11.3 km/h 7.4 km/h 15 % 0 mm
16:49 40.4 °C 7.8 °C 1005 hPa North 27.8 km/h 13.7 km/h 14 % 0 mm
16:54 40.4 °C 9.7 °C 1005 hPa NNE 16.7 km/h 11.9 km/h 16 % 0 mm
16:59 40.4 °C 9.8 °C 1004.6 hPa NE 17.7 km/h 11.3 km/h 16 % 0 mm
17:04 40.3 °C 9.7 °C 1004.6 hPa North 14.8 km/h 7.2 km/h 16 % 0 mm
17:09 40.3 °C 10.6 °C 1004.6 hPa NNW 18.5 km/h 13 km/h 17 % 0 mm
17:14 40.4 °C 9.8 °C 1004.6 hPa NE 18.5 km/h 10.5 km/h 16 % 0 mm
17:19 40.3 °C 9.6 °C 1004.6 hPa NE 13 km/h 7.1 km/h 16 % 0 mm
17:24 40.3 °C 9.7 °C 1004.6 hPa NE 31.5 km/h 15.9 km/h 16 % 0 mm
17:29 40.3 °C 10.6 °C 1004.3 hPa North 11.3 km/h 7.9 km/h 17 % 0 mm
17:34 40.4 °C 9.8 °C 1004.3 hPa NNW 17.7 km/h 13.8 km/h 16 % 0 mm
17:39 40.4 °C 10.7 °C 1004.3 hPa North 20.4 km/h 10.1 km/h 17 % 0 mm
17:44 40.4 °C 9.8 °C 1004.3 hPa NNE 22.5 km/h 7.2 km/h 16 % 0 mm
17:49 40.3 °C 10.6 °C 1004.3 hPa North 11.1 km/h 8.7 km/h 17 % 0 mm
17:54 40.3 °C 9.6 °C 1003.9 hPa North 16.1 km/h 9.3 km/h 16 % 0 mm
17:59 40.3 °C 9.6 °C 1003.9 hPa NNE 20.9 km/h 18.5 km/h 16 % 0 mm
18:04 40.1 °C 10.4 °C 1003.9 hPa NNE 20.4 km/h 12.9 km/h 17 % 0 mm
18:09 40 °C 10.3 °C 1003.9 hPa NNE 25.9 km/h 7.6 km/h 17 % 0 mm
18:14 40.1 °C 10.4 °C 1003.9 hPa North 18.5 km/h 6.9 km/h 17 % 0 mm
18:19 40 °C 10.3 °C 1003.6 hPa NNE 11.3 km/h 12.1 km/h 17 % 0 mm
18:24 40 °C 10.3 °C 1003.6 hPa NNE 16.7 km/h 14.8 km/h 17 % 0 mm
18:29 39.9 °C 10.2 °C 1003.6 hPa North 20.9 km/h 17.9 km/h 17 % 0 mm
18:34 39.7 °C 10.1 °C 1003.6 hPa North 25.9 km/h 15.6 km/h 17 % 0 mm
18:39 39.7 °C 10.1 °C 1003.6 hPa North 18.5 km/h 10.5 km/h 17 % 0 mm
18:44 39.7 °C 10.1 °C 1003.9 hPa North 24.1 km/h 16.9 km/h 17 % 0 mm
18:49 39.8 °C 10.2 °C 1003.9 hPa North 14.8 km/h 10 km/h 17 % 0 mm
18:54 39.8 °C 10.2 °C 1003.9 hPa North 18.5 km/h 11.9 km/h 17 % 0 mm
18:59 39.7 °C 10.1 °C 1003.6 hPa North 13 km/h 10.6 km/h 17 % 0 mm
19:04 39.7 °C 10.1 °C 1003.6 hPa NNE 13 km/h 6.3 km/h 17 % 0 mm
19:09 39.8 °C 10.2 °C 1003.9 hPa NNW 20.4 km/h 15.8 km/h 17 % 0 mm
19:14 39.8 °C 11 °C 1003.6 hPa NNW 9.3 km/h 5.6 km/h 18 % 0 mm
19:19 39.8 °C 10.2 °C 1003.9 hPa NNE 20.4 km/h 13 km/h 17 % 0 mm
19:24 39.6 °C 10 °C 1003.9 hPa NNE 20.4 km/h 16.1 km/h 17 % 0 mm
19:29 39.4 °C 9.8 °C 1003.9 hPa North 18.5 km/h 11.6 km/h 17 % 0 mm
19:34 39.3 °C 9.7 °C 1003.9 hPa NNE 13 km/h 8.5 km/h 17 % 0 mm
19:39 39.2 °C 10.6 °C 1003.9 hPa NNE 16.7 km/h 8.5 km/h 18 % 0 mm
19:44 39.2 °C 10.5 °C 1003.9 hPa North 14.5 km/h 8.4 km/h 18 % 0 mm
19:49 39.1 °C 10.4 °C 1003.9 hPa North 9.3 km/h 6.3 km/h 18 % 0 mm
19:54 39 °C 10.4 °C 1003.9 hPa North 11.3 km/h 7.4 km/h 18 % 0 mm
19:59 38.8 °C 10.2 °C 1003.6 hPa NNE 9.7 km/h 6.3 km/h 18 % 0 mm
20:04 38.7 °C 10.1 °C 1003.6 hPa North 14.8 km/h 10.5 km/h 18 % 0 mm
20:09 38.5 °C 9.9 °C 1003.9 hPa North 11.1 km/h 6.9 km/h 18 % 0 mm
20:14 38.4 °C 10.7 °C 1003.9 hPa North 7.4 km/h 7.1 km/h 19 % 0 mm
20:19 38.2 °C 10.6 °C 1003.9 hPa North 11.1 km/h 6.9 km/h 19 % 0 mm
20:24 38 °C 10.4 °C 1003.9 hPa North 5.6 km/h 3.9 km/h 19 % 0 mm
20:29 37.7 °C 10.2 °C 1003.9 hPa North 5.6 km/h 3.5 km/h 19 % 0 mm
20:34 37.4 °C 10.7 °C 1003.9 hPa North 5.6 km/h 3.1 km/h 20 % 0 mm
20:39 37.1 °C 11.2 °C 1003.9 hPa North 5.6 km/h 2.9 km/h 21 % 0 mm
20:44 36.8 °C 10.9 °C 1003.9 hPa North 5.6 km/h 0.3 km/h 21 % 0 mm
20:49 36.6 °C 10.7 °C 1003.9 hPa Calm     21 % 0 mm
20:54 36.2 °C 11.1 °C 1004.3 hPa Calm     22 % 0 mm
20:59 35.8 °C 11.4 °C 1004.3 hPa Calm     23 % 0 mm
21:04 35.1 °C 10.9 °C 1004.3 hPa Calm     23 % 0 mm
21:09 34.3 °C 11.5 °C 1004.3 hPa Calm     25 % 0 mm
21:14 33.6 °C 11.4 °C 1004.3 hPa Calm     26 % 0 mm
21:19 33.2 °C 11.7 °C 1004.3 hPa Calm     27 % 0 mm
21:24 32.9 °C 11.4 °C 1004.3 hPa Calm     27 % 0 mm
21:29 32.4 °C 12.1 °C 1004.3 hPa Calm     29 % 0 mm
21:34 31.9 °C 12.2 °C 1004.3 hPa North 1.6 km/h 0.3 km/h 30 % 0 mm
21:39 31.6 °C 12.4 °C 1004.3 hPa North 1.9 km/h   31 % 0 mm
21:44 31.4 °C 12.7 °C 1004.3 hPa Calm     32 % 0 mm
21:49 31 °C 12.8 °C 1004.3 hPa Calm     33 % 0 mm
21:54 30.7 °C 12.6 °C 1004.3 hPa Calm     33 % 0 mm
21:59 30.3 °C 12.7 °C 1004.3 hPa Calm     34 % 0 mm
22:04 30 °C 12.9 °C 1004.3 hPa Calm     35 % 0 mm
22:09 29.7 °C 13.1 °C 1004.3 hPa Calm     36 % 0 mm
22:14 29.4 °C 12.8 °C 1004.3 hPa Calm     36 % 0 mm
22:19 29.2 °C 13.1 °C 1004.3 hPa Calm     37 % 0 mm
22:24 29 °C 12.8 °C 1004.3 hPa Calm     37 % 0 mm
22:29 28.8 °C 12.6 °C 1004.3 hPa North 3.7 km/h 1.8 km/h 37 % 0 mm
22:34 29 °C 12.4 °C 1004.3 hPa North 3.7 km/h 0.5 km/h 36 % 0 mm
22:39 29.3 °C 12.2 °C 1004.3 hPa North 3.7 km/h 1.9 km/h 35 % 0 mm
22:44 29.2 °C 13 °C 1004.3 hPa Calm     37 % 0 mm
22:49 28.8 °C 12.6 °C 1004.3 hPa North 3.7 km/h 1.8 km/h 37 % 0 mm
22:54 28.8 °C 12.2 °C 1004.3 hPa North 5.6 km/h 1.8 km/h 36 % 0 mm
22:59 29 °C 12.4 °C 1004.3 hPa North 5.6 km/h 3.7 km/h 36 % 0 mm
23:04 28.8 °C 12.3 °C 1004.3 hPa North 3.7 km/h 1.6 km/h 36 % 0 mm
23:09 28.7 °C 12.6 °C 1004.3 hPa North 3.2 km/h 1.3 km/h 37 % 0 mm
23:14 28.4 °C 12.3 °C 1004.3 hPa North 3.7 km/h 2.9 km/h 37 % 0 mm
23:19 28.4 °C 12.3 °C 1004.3 hPa North 3.7 km/h 2.3 km/h 37 % 0 mm
23:24 28.2 °C 12.1 °C 1004.3 hPa North 5.6 km/h 1.9 km/h 37 % 0 mm
23:29 28.1 °C 12.1 °C 1004.3 hPa North 5.6 km/h 2.9 km/h 37 % 0 mm
23:34 28.3 °C 12.2 °C 1004.3 hPa North 5.6 km/h 3.9 km/h 37 % 0 mm
23:39 28.5 °C 12 °C 1004.3 hPa North 5.6 km/h 4.2 km/h 36 % 0 mm
23:44 28.6 °C 11.7 °C 1004.3 hPa North 5.6 km/h 2.9 km/h 35 % 0 mm
23:49 28.8 °C 11.3 °C 1004.3 hPa North 5.6 km/h 2.7 km/h 34 % 0 mm
23:54 29.1 °C 11.2 °C 1004.3 hPa North 5.6 km/h 2.7 km/h 33 % 0 mm
23:59 29.4 °C 11 °C 1004.3 hPa North 9.3 km/h 3.7 km/h 32 % 0 mm
Ararat Weather
Compliments of Weather Underground - 2.25 mb
Click here to send mail.


ABOUT

Live weather data from Ararat, Victoria, Australia, 3377
Data uploaded from Cumulus every 5 minutes to Weather Underground.
This site then downloads the raw data for formatting and display.
Metric and imperial data can be displayed. Graphs and historical data available.
Includes Sun and Moon times and rain image live from BOM.

Check out Ararat Weather on Facebook, Twitter and Google +

Help support ongoing costs by checking out the ads





Follow @AraratWeather